sensor_id;sensor_type;location;lat;lon;timestamp;pressure;altitude;pressure_sealevel;temperature;humidity
5283;BME280;15376;48.540;9.268;2023-09-12T00:00:42;97180.16;;;16.42;100.00
5283;BME280;15376;48.540;9.268;2023-09-12T00:03:09;97170.00;;;16.32;100.00
5283;BME280;15376;48.540;9.268;2023-09-12T00:05:34;97180.66;;;16.50;100.00
5283;BME280;15376;48.540;9.268;2023-09-12T00:08:00;97174.28;;;16.63;100.00
5283;BME280;15376;48.540;9.268;2023-09-12T00:10:25;97149.56;;;16.61;100.00
5283;BME280;15376;48.540;9.268;2023-09-12T00:12:51;97165.22;;;16.64;100.00
5283;BME280;15376;48.540;9.268;2023-09-12T00:15:16;97169.34;;;16.78;100.00
5283;BME280;15376;48.540;9.268;2023-09-12T00:17:42;97169.59;;;16.88;100.00
5283;BME280;15376;48.540;9.268;2023-09-12T00:20:07;97155.34;;;16.76;100.00
5283;BME280;15376;48.540;9.268;2023-09-12T00:22:33;97164.56;;;16.80;100.00
5283;BME280;15376;48.540;9.268;2023-09-12T00:24:58;97170.41;;;16.77;100.00
5283;BME280;15376;48.540;9.268;2023-09-12T00:27:24;97154.94;;;16.61;100.00
5283;BME280;15376;48.540;9.268;2023-09-12T00:29:49;97147.31;;;16.46;100.00
5283;BME280;15376;48.540;9.268;2023-09-12T00:32:15;97131.91;;;16.42;100.00
5283;BME280;15376;48.540;9.268;2023-09-12T00:34:40;97157.03;;;16.59;100.00
5283;BME280;15376;48.540;9.268;2023-09-12T00:37:05;97171.09;;;16.73;100.00
5283;BME280;15376;48.540;9.268;2023-09-12T00:39:31;97152.09;;;16.74;100.00
5283;BME280;15376;48.540;9.268;2023-09-12T00:41:56;97147.19;;;16.83;100.00
5283;BME280;15376;48.540;9.268;2023-09-12T00:44:21;97167.16;;;16.98;100.00
5283;BME280;15376;48.540;9.268;2023-09-12T00:46:47;97161.19;;;16.85;100.00
5283;BME280;15376;48.540;9.268;2023-09-12T00:49:16;97169.69;;;16.70;100.00
5283;BME280;15376;48.540;9.268;2023-09-12T00:51:44;97168.19;;;16.74;100.00
5283;BME280;15376;48.540;9.268;2023-09-12T00:54:10;97162.13;;;16.79;100.00
5283;BME280;15376;48.540;9.268;2023-09-12T00:56:36;97153.81;;;16.80;100.00
5283;BME280;15376;48.540;9.268;2023-09-12T00:59:02;97148.47;;;16.80;100.00
5283;BME280;15376;48.540;9.268;2023-09-12T01:01:28;97164.00;;;16.90;100.00
5283;BME280;15376;48.540;9.268;2023-09-12T01:03:54;97158.03;;;16.88;100.00
5283;BME280;15376;48.540;9.268;2023-09-12T01:06:23;97170.59;;;16.64;100.00
5283;BME280;15376;48.540;9.268;2023-09-12T01:08:51;97156.09;;;16.23;100.00
5283;BME280;15376;48.540;9.268;2023-09-12T01:11:16;97156.56;;;16.02;100.00
5283;BME280;15376;48.540;9.268;2023-09-12T01:13:42;97167.66;;;16.06;100.00
5283;BME280;15376;48.540;9.268;2023-09-12T01:16:07;97151.75;;;15.74;100.00
5283;BME280;15376;48.540;9.268;2023-09-12T01:18:33;97165.88;;;15.63;100.00
5283;BME280;15376;48.540;9.268;2023-09-12T01:21:26;97171.59;;;15.48;100.00
5283;BME280;15376;48.540;9.268;2023-09-12T01:26:55;97134.72;;;15.50;100.00
5283;BME280;15376;48.540;9.268;2023-09-12T01:29:26;97171.19;;;15.88;100.00
5283;BME280;15376;48.540;9.268;2023-09-12T01:31:52;97176.75;;;15.86;100.00
5283;BME280;15376;48.540;9.268;2023-09-12T01:34:17;97154.44;;;15.74;100.00
5283;BME280;15376;48.540;9.268;2023-09-12T01:36:44;97165.38;;;15.73;100.00
5283;BME280;15376;48.540;9.268;2023-09-12T01:39:09;97175.19;;;15.79;100.00
5283;BME280;15376;48.540;9.268;2023-09-12T01:41:40;97179.50;;;15.80;100.00
5283;BME280;15376;48.540;9.268;2023-09-12T01:44:08;97176.00;;;15.61;100.00
5283;BME280;15376;48.540;9.268;2023-09-12T01:46:35;97183.94;;;15.49;100.00
5283;BME280;15376;48.540;9.268;2023-09-12T01:49:02;97178.34;;;15.51;100.00
5283;BME280;15376;48.540;9.268;2023-09-12T01:51:29;97191.69;;;15.57;100.00
5283;BME280;15376;48.540;9.268;2023-09-12T01:53:55;97181.28;;;15.67;100.00
5283;BME280;15376;48.540;9.268;2023-09-12T01:56:22;97172.28;;;15.62;100.00
5283;BME280;15376;48.540;9.268;2023-09-12T01:58:48;97178.94;;;15.53;100.00
5283;BME280;15376;48.540;9.268;2023-09-12T02:01:14;97178.94;;;15.53;100.00
5283;BME280;15376;48.540;9.268;2023-09-12T02:03:39;97169.13;;;15.47;100.00
5283;BME280;15376;48.540;9.268;2023-09-12T02:06:05;97180.28;;;15.44;100.00
5283;BME280;15376;48.540;9.268;2023-09-12T02:08:30;97151.13;;;15.35;100.00
5283;BME280;15376;48.540;9.268;2023-09-12T02:10:55;97155.09;;;15.51;100.00
5283;BME280;15376;48.540;9.268;2023-09-12T02:13:20;97180.19;;;15.57;100.00
5283;BME280;15376;48.540;9.268;2023-09-12T02:15:46;97174.09;;;15.43;100.00
5283;BME280;15376;48.540;9.268;2023-09-12T02:18:11;97163.28;;;15.31;100.00
5283;BME280;15376;48.540;9.268;2023-09-12T02:20:39;97171.88;;;15.40;100.00
5283;BME280;15376;48.540;9.268;2023-09-12T02:23:04;97174.69;;;15.45;100.00
5283;BME280;15376;48.540;9.268;2023-09-12T02:25:30;97179.78;;;15.53;100.00
5283;BME280;15376;48.540;9.268;2023-09-12T02:27:55;97173.31;;;15.61;100.00
5283;BME280;15376;48.540;9.268;2023-09-12T02:30:21;97162.59;;;15.61;100.00
5283;BME280;15376;48.540;9.268;2023-09-12T02:32:46;97152.84;;;15.48;100.00
5283;BME280;15376;48.540;9.268;2023-09-12T02:35:11;97160.22;;;15.53;100.00
5283;BME280;15376;48.540;9.268;2023-09-12T02:37:37;97149.28;;;15.54;100.00
5283;BME280;15376;48.540;9.268;2023-09-12T02:40:03;97140.28;;;15.49;100.00
5283;BME280;15376;48.540;9.268;2023-09-12T02:42:30;97145.19;;;15.52;100.00
5283;BME280;15376;48.540;9.268;2023-09-12T02:44:55;97136.09;;;15.59;100.00
5283;BME280;15376;48.540;9.268;2023-09-12T02:47:21;97139.41;;;15.55;100.00
5283;BME280;15376;48.540;9.268;2023-09-12T02:49:46;97120.66;;;15.55;100.00
5283;BME280;15376;48.540;9.268;2023-09-12T02:52:11;97145.97;;;15.77;100.00
5283;BME280;15376;48.540;9.268;2023-09-12T02:54:37;97128.78;;;15.66;100.00
5283;BME280;15376;48.540;9.268;2023-09-12T02:57:02;97145.00;;;15.72;100.00
5283;BME280;15376;48.540;9.268;2023-09-12T02:59:29;97127.50;;;15.51;100.00
5283;BME280;15376;48.540;9.268;2023-09-12T03:01:54;97121.41;;;15.44;100.00
5283;BME280;15376;48.540;9.268;2023-09-12T03:04:19;97139.63;;;15.53;100.00
5283;BME280;15376;48.540;9.268;2023-09-12T03:06:45;97137.69;;;15.60;100.00
5283;BME280;15376;48.540;9.268;2023-09-12T03:09:10;97138.28;;;15.62;100.00
5283;BME280;15376;48.540;9.268;2023-09-12T03:11:36;97129.50;;;15.55;100.00
5283;BME280;15376;48.540;9.268;2023-09-12T03:14:02;97143.78;;;15.67;100.00
5283;BME280;15376;48.540;9.268;2023-09-12T03:16:27;97132.81;;;15.57;100.00
5283;BME280;15376;48.540;9.268;2023-09-12T03:18:53;97145.88;;;15.65;100.00
5283;BME280;15376;48.540;9.268;2023-09-12T03:21:18;97153.53;;;15.62;100.00
5283;BME280;15376;48.540;9.268;2023-09-12T03:23:43;97151.22;;;15.65;100.00
5283;BME280;15376;48.540;9.268;2023-09-12T03:26:09;97144.84;;;15.66;100.00
5283;BME280;15376;48.540;9.268;2023-09-12T03:28:34;97154.94;;;15.64;100.00
5283;BME280;15376;48.540;9.268;2023-09-12T03:31:11;97154.94;;;15.64;100.00
5283;BME280;15376;48.540;9.268;2023-09-12T03:33:37;97060.66;;;15.08;100.00
5283;BME280;15376;48.540;9.268;2023-09-12T03:36:03;97128.69;;;15.55;100.00
5283;BME280;15376;48.540;9.268;2023-09-12T03:38:28;97139.63;;;15.72;100.00
5283;BME280;15376;48.540;9.268;2023-09-12T03:40:53;97137.19;;;15.70;100.00
5283;BME280;15376;48.540;9.268;2023-09-12T03:43:19;97119.84;;;15.54;100.00
5283;BME280;15376;48.540;9.268;2023-09-12T03:45:44;97123.25;;;15.43;100.00
5283;BME280;15376;48.540;9.268;2023-09-12T03:48:10;97117.38;;;15.16;100.00
5283;BME280;15376;48.540;9.268;2023-09-12T03:50:35;97117.53;;;14.96;100.00
5283;BME280;15376;48.540;9.268;2023-09-12T03:53:00;97129.97;;;14.84;100.00
5283;BME280;15376;48.540;9.268;2023-09-12T03:55:27;97122.34;;;14.63;100.00
5283;BME280;15376;48.540;9.268;2023-09-12T03:57:52;97144.56;;;14.88;100.00
5283;BME280;15376;48.540;9.268;2023-09-12T04:00:18;97144.66;;;15.00;100.00
5283;BME280;15376;48.540;9.268;2023-09-12T04:02:43;97128.84;;;14.98;100.00
5283;BME280;15376;48.540;9.268;2023-09-12T04:05:08;97146.25;;;15.08;100.00
5283;BME280;15376;48.540;9.268;2023-09-12T04:07:34;97143.75;;;15.13;100.00
5283;BME280;15376;48.540;9.268;2023-09-12T04:10:00;97013.22;;;14.35;100.00
5283;BME280;15376;48.540;9.268;2023-09-12T04:12:25;97147.72;;;15.04;100.00
5283;BME280;15376;48.540;9.268;2023-09-12T04:14:52;97149.91;;;14.88;100.00
5283;BME280;15376;48.540;9.268;2023-09-12T04:17:17;97138.31;;;14.76;100.00
5283;BME280;15376;48.540;9.268;2023-09-12T04:19:43;97142.69;;;14.89;100.00
5283;BME280;15376;48.540;9.268;2023-09-12T04:22:08;97115.06;;;14.77;100.00
5283;BME280;15376;48.540;9.268;2023-09-12T04:24:33;97137.31;;;14.95;100.00
5283;BME280;15376;48.540;9.268;2023-09-12T04:26:59;97119.03;;;14.92;100.00
5283;BME280;15376;48.540;9.268;2023-09-12T04:29:24;97136.59;;;15.07;100.00
5283;BME280;15376;48.540;9.268;2023-09-12T04:31:49;97148.72;;;15.27;100.00
5283;BME280;15376;48.540;9.268;2023-09-12T04:34:17;97144.72;;;15.18;100.00
5283;BME280;15376;48.540;9.268;2023-09-12T04:36:43;97145.06;;;15.22;100.00
5283;BME280;15376;48.540;9.268;2023-09-12T04:39:09;97138.34;;;15.19;100.00
5283;BME280;15376;48.540;9.268;2023-09-12T04:41:34;97126.59;;;14.95;100.00
5283;BME280;15376;48.540;9.268;2023-09-12T04:43:59;97121.84;;;14.97;100.00
5283;BME280;15376;48.540;9.268;2023-09-12T04:46:27;97110.72;;;15.00;100.00
5283;BME280;15376;48.540;9.268;2023-09-12T04:48:52;97143.00;;;15.24;100.00
5283;BME280;15376;48.540;9.268;2023-09-12T04:51:18;97138.63;;;15.11;100.00
5283;BME280;15376;48.540;9.268;2023-09-12T04:53:43;97132.78;;;14.96;100.00
5283;BME280;15376;48.540;9.268;2023-09-12T04:56:09;97143.91;;;14.93;100.00
5283;BME280;15376;48.540;9.268;2023-09-12T04:58:35;97134.03;;;14.68;100.00
5283;BME280;15376;48.540;9.268;2023-09-12T05:01:00;97134.09;;;14.62;100.00
5283;BME280;15376;48.540;9.268;2023-09-12T05:03:26;97134.22;;;14.74;100.00
5283;BME280;15376;48.540;9.268;2023-09-12T05:05:52;97130.88;;;14.78;100.00
5283;BME280;15376;48.540;9.268;2023-09-12T05:08:17;97124.78;;;14.71;100.00
5283;BME280;15376;48.540;9.268;2023-09-12T05:10:45;97119.72;;;14.81;100.00
5283;BME280;15376;48.540;9.268;2023-09-12T05:13:10;97112.84;;;14.92;100.00
5283;BME280;15376;48.540;9.268;2023-09-12T05:15:37;97142.25;;;15.17;100.00
5283;BME280;15376;48.540;9.268;2023-09-12T05:18:05;97129.03;;;15.22;100.00
5283;BME280;15376;48.540;9.268;2023-09-12T05:20:30;97132.59;;;15.34;100.00
5283;BME280;15376;48.540;9.268;2023-09-12T05:22:56;97131.72;;;15.40;100.00
5283;BME280;15376;48.540;9.268;2023-09-12T05:25:21;97135.28;;;15.59;100.00
5283;BME280;15376;48.540;9.268;2023-09-12T05:27:46;97120.59;;;15.43;100.00
5283;BME280;15376;48.540;9.268;2023-09-12T05:30:12;97112.13;;;15.46;100.00
5283;BME280;15376;48.540;9.268;2023-09-12T05:32:37;97132.19;;;15.55;100.00
5283;BME280;15376;48.540;9.268;2023-09-12T05:35:03;97133.44;;;15.53;100.00
5283;BME280;15376;48.540;9.268;2023-09-12T05:37:29;97121.72;;;15.54;100.00
5283;BME280;15376;48.540;9.268;2023-09-12T05:39:54;97129.75;;;15.72;100.00
5283;BME280;15376;48.540;9.268;2023-09-12T05:42:19;97138.59;;;15.91;100.00
5283;BME280;15376;48.540;9.268;2023-09-12T05:44:50;97134.09;;;16.03;100.00
5283;BME280;15376;48.540;9.268;2023-09-12T05:47:19;97138.25;;;16.17;100.00
5283;BME280;15376;48.540;9.268;2023-09-12T05:49:44;97149.03;;;16.41;100.00
5283;BME280;15376;48.540;9.268;2023-09-12T05:52:09;97131.59;;;16.50;100.00
5283;BME280;15376;48.540;9.268;2023-09-12T05:54:36;97134.69;;;16.65;100.00
5283;BME280;15376;48.540;9.268;2023-09-12T05:57:01;97154.44;;;16.94;100.00
5283;BME280;15376;48.540;9.268;2023-09-12T05:59:27;97138.81;;;17.03;100.00
5283;BME280;15376;48.540;9.268;2023-09-12T06:01:53;97139.41;;;17.28;100.00
5283;BME280;15376;48.540;9.268;2023-09-12T06:04:18;97157.16;;;17.52;100.00
5283;BME280;15376;48.540;9.268;2023-09-12T06:06:43;97153.38;;;17.77;100.00
5283;BME280;15376;48.540;9.268;2023-09-12T06:09:09;97152.28;;;18.01;100.00
5283;BME280;15376;48.540;9.268;2023-09-12T06:11:34;97119.78;;;18.03;100.00
5283;BME280;15376;48.540;9.268;2023-09-12T06:13:59;97139.59;;;18.42;100.00
5283;BME280;15376;48.540;9.268;2023-09-12T06:16:25;97140.00;;;18.62;100.00
5283;BME280;15376;48.540;9.268;2023-09-12T06:18:50;97144.84;;;18.77;100.00
5283;BME280;15376;48.540;9.268;2023-09-12T06:21:16;97145.50;;;19.01;100.00
5283;BME280;15376;48.540;9.268;2023-09-12T06:23:42;97133.69;;;19.02;100.00
5283;BME280;15376;48.540;9.268;2023-09-12T06:26:07;97134.16;;;19.15;100.00
5283;BME280;15376;48.540;9.268;2023-09-12T06:28:33;97151.50;;;19.24;100.00
5283;BME280;15376;48.540;9.268;2023-09-12T06:30:58;97149.78;;;19.35;100.00
5283;BME280;15376;48.540;9.268;2023-09-12T06:33:27;97151.91;;;19.33;100.00
5283;BME280;15376;48.540;9.268;2023-09-12T06:35:53;97150.28;;;19.32;100.00
5283;BME280;15376;48.540;9.268;2023-09-12T06:38:22;97112.78;;;19.09;100.00
5283;BME280;15376;48.540;9.268;2023-09-12T06:40:49;97137.06;;;19.30;100.00
5283;BME280;15376;48.540;9.268;2023-09-12T06:43:14;97141.63;;;19.30;100.00
5283;BME280;15376;48.540;9.268;2023-09-12T06:45:43;97149.16;;;19.28;100.00
5283;BME280;15376;48.540;9.268;2023-09-12T06:48:09;97151.28;;;19.26;100.00
5283;BME280;15376;48.540;9.268;2023-09-12T06:50:35;97150.22;;;19.27;100.00
5283;BME280;15376;48.540;9.268;2023-09-12T06:53:03;97134.97;;;19.16;100.00
5283;BME280;15376;48.540;9.268;2023-09-12T06:55:28;97144.13;;;19.15;100.00
5283;BME280;15376;48.540;9.268;2023-09-12T06:57:54;97161.22;;;19.25;100.00
5283;BME280;15376;48.540;9.268;2023-09-12T07:00:19;97163.91;;;19.25;100.00
5283;BME280;15376;48.540;9.268;2023-09-12T07:02:45;97158.72;;;19.19;100.00
5283;BME280;15376;48.540;9.268;2023-09-12T07:05:10;97179.59;;;19.28;100.00
5283;BME280;15376;48.540;9.268;2023-09-12T07:07:36;97172.44;;;19.17;100.00
5283;BME280;15376;48.540;9.268;2023-09-12T07:10:01;97167.28;;;19.16;100.00
5283;BME280;15376;48.540;9.268;2023-09-12T07:12:26;97174.44;;;19.27;100.00
5283;BME280;15376;48.540;9.268;2023-09-12T07:14:54;97166.44;;;19.32;100.00
5283;BME280;15376;48.540;9.268;2023-09-12T07:17:19;97177.88;;;19.39;100.00
5283;BME280;15376;48.540;9.268;2023-09-12T07:19:44;97156.81;;;19.36;100.00
5283;BME280;15376;48.540;9.268;2023-09-12T07:22:10;97155.25;;;19.40;100.00
5283;BME280;15376;48.540;9.268;2023-09-12T07:24:35;97178.13;;;19.54;100.00
5283;BME280;15376;48.540;9.268;2023-09-12T07:27:00;97186.81;;;19.61;100.00
5283;BME280;15376;48.540;9.268;2023-09-12T07:29:26;97170.31;;;19.53;100.00
5283;BME280;15376;48.540;9.268;2023-09-12T07:31:53;97189.28;;;19.63;100.00
5283;BME280;15376;48.540;9.268;2023-09-12T07:34:20;97175.25;;;19.61;100.00
5283;BME280;15376;48.540;9.268;2023-09-12T07:36:45;97196.94;;;19.71;100.00
5283;BME280;15376;48.540;9.268;2023-09-12T07:39:10;97193.00;;;19.79;100.00
5283;BME280;15376;48.540;9.268;2023-09-12T07:41:36;97182.88;;;19.86;100.00
5283;BME280;15376;48.540;9.268;2023-09-12T07:44:01;97173.53;;;19.93;100.00
5283;BME280;15376;48.540;9.268;2023-09-12T07:46:29;97186.50;;;20.18;100.00
5283;BME280;15376;48.540;9.268;2023-09-12T07:48:55;97185.56;;;20.29;100.00
5283;BME280;15376;48.540;9.268;2023-09-12T07:51:20;97187.63;;;20.66;100.00
5283;BME280;15376;48.540;9.268;2023-09-12T07:53:48;97207.16;;;21.05;100.00
5283;BME280;15376;48.540;9.268;2023-09-12T07:56:13;97207.34;;;21.25;100.00
5283;BME280;15376;48.540;9.268;2023-09-12T07:58:38;97188.84;;;21.44;100.00
5283;BME280;15376;48.540;9.268;2023-09-12T08:01:08;97212.09;;;21.87;100.00
5283;BME280;15376;48.540;9.268;2023-09-12T08:03:35;97204.41;;;22.11;100.00
5283;BME280;15376;48.540;9.268;2023-09-12T08:06:01;97205.34;;;22.42;100.00
5283;BME280;15376;48.540;9.268;2023-09-12T08:08:26;97194.25;;;22.49;99.26
5283;BME280;15376;48.540;9.268;2023-09-12T08:10:52;97207.56;;;22.60;99.35
5283;BME280;15376;48.540;9.268;2023-09-12T08:13:17;97217.34;;;22.67;98.08
5283;BME280;15376;48.540;9.268;2023-09-12T08:15:43;97216.53;;;22.66;98.77
5283;BME280;15376;48.540;9.268;2023-09-12T08:18:08;97198.09;;;22.63;99.11
5283;BME280;15376;48.540;9.268;2023-09-12T08:20:33;97210.56;;;22.69;99.41
5283;BME280;15376;48.540;9.268;2023-09-12T08:22:59;97188.91;;;22.69;98.49
5283;BME280;15376;48.540;9.268;2023-09-12T08:25:24;97202.19;;;22.71;98.33
5283;BME280;15376;48.540;9.268;2023-09-12T08:27:50;97200.34;;;22.86;98.05
5283;BME280;15376;48.540;9.268;2023-09-12T08:30:16;97198.19;;;22.99;98.05
5283;BME280;15376;48.540;9.268;2023-09-12T08:32:41;97121.50;;;22.68;97.12
5283;BME280;15376;48.540;9.268;2023-09-12T08:35:12;97185.72;;;23.28;97.37
5283;BME280;15376;48.540;9.268;2023-09-12T08:37:39;97186.28;;;23.45;95.12
5283;BME280;15376;48.540;9.268;2023-09-12T08:40:06;97198.19;;;23.80;93.28
5283;BME280;15376;48.540;9.268;2023-09-12T08:42:38;97199.16;;;24.14;91.44
5283;BME280;15376;48.540;9.268;2023-09-12T08:45:07;97188.00;;;24.31;90.03
5283;BME280;15376;48.540;9.268;2023-09-12T08:47:39;97189.63;;;24.37;87.96
5283;BME280;15376;48.540;9.268;2023-09-12T08:50:04;97201.31;;;24.33;89.68
5283;BME280;15376;48.540;9.268;2023-09-12T08:52:30;97197.25;;;24.30;88.21
5283;BME280;15376;48.540;9.268;2023-09-12T08:54:55;97189.38;;;24.29;87.62
5283;BME280;15376;48.540;9.268;2023-09-12T08:57:21;97189.81;;;24.46;86.99
5283;BME280;15376;48.540;9.268;2023-09-12T08:59:47;97193.88;;;24.48;86.66
5283;BME280;15376;48.540;9.268;2023-09-12T09:02:14;97194.63;;;24.64;87.70
5283;BME280;15376;48.540;9.268;2023-09-12T09:04:40;97176.97;;;24.67;89.46
5283;BME280;15376;48.540;9.268;2023-09-12T09:07:06;97181.47;;;24.81;89.30
5283;BME280;15376;48.540;9.268;2023-09-12T09:09:32;97184.13;;;24.97;88.88
5283;BME280;15376;48.540;9.268;2023-09-12T09:11:58;97179.34;;;25.17;86.60
5283;BME280;15376;48.540;9.268;2023-09-12T09:14:23;97184.59;;;25.38;86.66
5283;BME280;15376;48.540;9.268;2023-09-12T09:16:50;97184.75;;;25.51;86.18
5283;BME280;15376;48.540;9.268;2023-09-12T09:19:15;97162.25;;;25.75;90.05
5283;BME280;15376;48.540;9.268;2023-09-12T09:21:41;97174.41;;;26.30;87.14
5283;BME280;15376;48.540;9.268;2023-09-12T09:24:08;97169.19;;;27.28;85.26
5283;BME280;15376;48.540;9.268;2023-09-12T09:26:44;97167.03;;;28.44;79.78
5283;BME280;15376;48.540;9.268;2023-09-12T09:29:16;97170.47;;;29.67;72.25
5283;BME280;15376;48.540;9.268;2023-09-12T09:31:44;97171.50;;;30.84;70.55
5283;BME280;15376;48.540;9.268;2023-09-12T09:34:20;97162.34;;;32.34;62.37
5283;BME280;15376;48.540;9.268;2023-09-12T09:36:51;97155.72;;;33.27;60.38
5283;BME280;15376;48.540;9.268;2023-09-12T09:39:18;97158.22;;;33.98;58.98
5283;BME280;15376;48.540;9.268;2023-09-12T09:41:52;97150.31;;;35.10;55.34
5283;BME280;15376;48.540;9.268;2023-09-12T09:44:17;97163.00;;;36.30;47.78
5283;BME280;15376;48.540;9.268;2023-09-12T09:46:44;97156.81;;;36.87;48.37
5283;BME280;15376;48.540;9.268;2023-09-12T09:49:10;97156.31;;;37.78;44.45
5283;BME280;15376;48.540;9.268;2023-09-12T09:51:43;97147.38;;;38.60;41.18
5283;BME280;15376;48.540;9.268;2023-09-12T09:54:09;97153.09;;;39.01;38.15
5283;BME280;15376;48.540;9.268;2023-09-12T09:56:54;97144.63;;;39.20;37.52
5283;BME280;15376;48.540;9.268;2023-09-12T09:59:29;97134.75;;;39.56;37.41
5283;BME280;15376;48.540;9.268;2023-09-12T10:01:59;97134.19;;;40.25;35.26
5283;BME280;15376;48.540;9.268;2023-09-12T10:04:27;97136.28;;;40.35;35.66
5283;BME280;15376;48.540;9.268;2023-09-12T10:06:55;97124.47;;;40.56;35.26
5283;BME280;15376;48.540;9.268;2023-09-12T10:09:22;97130.78;;;40.49;34.18
5283;BME280;15376;48.540;9.268;2023-09-12T10:11:50;97128.00;;;41.22;32.26
5283;BME280;15376;48.540;9.268;2023-09-12T10:14:18;97129.31;;;41.49;32.36
5283;BME280;15376;48.540;9.268;2023-09-12T10:16:48;97129.41;;;42.17;31.05
5283;BME280;15376;48.540;9.268;2023-09-12T10:19:23;97120.63;;;41.97;31.19
5283;BME280;15376;48.540;9.268;2023-09-12T10:22:01;97127.75;;;41.66;31.03
5283;BME280;15376;48.540;9.268;2023-09-12T10:24:29;97125.28;;;41.33;32.04
5283;BME280;15376;48.540;9.268;2023-09-12T10:26:55;97117.44;;;42.02;29.77
5283;BME280;15376;48.540;9.268;2023-09-12T10:29:22;97127.81;;;42.09;28.91
5283;BME280;15376;48.540;9.268;2023-09-12T10:31:48;97119.53;;;40.97;31.11
5283;BME280;15376;48.540;9.268;2023-09-12T10:34:15;97126.63;;;42.27;27.00
5283;BME280;15376;48.540;9.268;2023-09-12T10:36:41;97126.75;;;41.09;29.13
5283;BME280;15376;48.540;9.268;2023-09-12T10:39:08;97119.75;;;40.63;30.52
5283;BME280;15376;48.540;9.268;2023-09-12T10:41:37;97093.72;;;40.35;30.98
5283;BME280;15376;48.540;9.268;2023-09-12T10:44:07;97120.53;;;40.64;28.52
5283;BME280;15376;48.540;9.268;2023-09-12T10:46:36;97116.97;;;40.63;29.50
5283;BME280;15376;48.540;9.268;2023-09-12T10:49:06;97126.63;;;40.77;27.59
5283;BME280;15376;48.540;9.268;2023-09-12T10:51:32;97119.69;;;41.33;27.61
5283;BME280;15376;48.540;9.268;2023-09-12T10:53:57;97126.16;;;41.58;28.51
5283;BME280;15376;48.540;9.268;2023-09-12T10:56:22;97109.84;;;40.70;28.25
5283;BME280;15376;48.540;9.268;2023-09-12T11:01:39;97109.22;;;41.05;28.70
5283;BME280;15376;48.540;9.268;2023-09-12T11:06:52;97115.81;;;40.17;29.46
5283;BME280;15376;48.540;9.268;2023-09-12T11:09:21;97113.38;;;38.67;30.11
5283;BME280;15376;48.540;9.268;2023-09-12T11:12:08;97089.63;;;37.71;31.41
5283;BME280;15376;48.540;9.268;2023-09-12T11:14:35;97084.56;;;36.22;34.86
5283;BME280;15376;48.540;9.268;2023-09-12T11:19:44;97087.38;;;34.75;36.29
5283;BME280;15376;48.540;9.268;2023-09-12T11:22:24;97091.47;;;34.05;38.56
5283;BME280;15376;48.540;9.268;2023-09-12T11:24:50;97082.34;;;33.43;39.08
5283;BME280;15376;48.540;9.268;2023-09-12T11:27:16;97075.72;;;32.49;40.18
5283;BME280;15376;48.540;9.268;2023-09-12T11:29:42;97077.66;;;31.98;40.73
5283;BME280;15376;48.540;9.268;2023-09-12T11:32:40;97080.34;;;31.77;43.97
5283;BME280;15376;48.540;9.268;2023-09-12T11:35:10;97078.31;;;31.57;46.19
5283;BME280;15376;48.540;9.268;2023-09-12T11:37:36;97074.34;;;31.29;45.27
5283;BME280;15376;48.540;9.268;2023-09-12T11:42:39;97068.41;;;30.83;44.05
5283;BME280;15376;48.540;9.268;2023-09-12T11:45:11;97047.66;;;30.57;44.79
5283;BME280;15376;48.540;9.268;2023-09-12T11:47:41;97050.53;;;30.34;44.58
5283;BME280;15376;48.540;9.268;2023-09-12T11:50:07;97044.72;;;30.27;44.53
5283;BME280;15376;48.540;9.268;2023-09-12T11:52:36;97061.31;;;30.31;45.79
5283;BME280;15376;48.540;9.268;2023-09-12T11:55:03;97039.53;;;30.08;44.45
5283;BME280;15376;48.540;9.268;2023-09-12T11:57:29;97036.63;;;30.13;44.94
5283;BME280;15376;48.540;9.268;2023-09-12T11:59:55;97060.53;;;30.39;44.91
5283;BME280;15376;48.540;9.268;2023-09-12T12:02:21;97037.94;;;30.33;44.75
5283;BME280;15376;48.540;9.268;2023-09-12T12:04:47;97055.34;;;30.46;46.90
5283;BME280;15376;48.540;9.268;2023-09-12T12:07:12;97052.63;;;30.29;46.85
5283;BME280;15376;48.540;9.268;2023-09-12T12:09:38;97053.91;;;30.31;45.73
5283;BME280;15376;48.540;9.268;2023-09-12T12:12:14;97046.00;;;30.21;46.60
5283;BME280;15376;48.540;9.268;2023-09-12T12:14:40;97057.88;;;30.08;46.95
5283;BME280;15376;48.540;9.268;2023-09-12T12:17:08;97049.78;;;29.94;47.65
5283;BME280;15376;48.540;9.268;2023-09-12T12:19:34;97053.47;;;29.90;46.87
5283;BME280;15376;48.540;9.268;2023-09-12T12:21:59;97034.16;;;29.86;46.44
5283;BME280;15376;48.540;9.268;2023-09-12T12:24:24;97049.97;;;29.98;45.49
5283;BME280;15376;48.540;9.268;2023-09-12T12:26:50;97027.06;;;29.85;47.94
5283;BME280;15376;48.540;9.268;2023-09-12T12:29:15;97048.63;;;29.86;47.89
5283;BME280;15376;48.540;9.268;2023-09-12T12:31:40;97032.59;;;29.63;47.58
5283;BME280;15376;48.540;9.268;2023-09-12T12:34:06;97040.84;;;29.71;46.45
5283;BME280;15376;48.540;9.268;2023-09-12T12:36:32;97028.59;;;29.69;45.04
5283;BME280;15376;48.540;9.268;2023-09-12T12:38:58;97041.91;;;29.93;45.87
5283;BME280;15376;48.540;9.268;2023-09-12T12:41:28;97030.19;;;30.09;45.53
5283;BME280;15376;48.540;9.268;2023-09-12T12:43:56;97041.13;;;30.09;45.33
5283;BME280;15376;48.540;9.268;2023-09-12T12:46:24;97032.03;;;29.83;44.79
5283;BME280;15376;48.540;9.268;2023-09-12T12:48:50;97028.38;;;29.96;45.28
5283;BME280;15376;48.540;9.268;2023-09-12T12:51:22;97018.88;;;30.02;46.90
5283;BME280;15376;48.540;9.268;2023-09-12T12:54:03;97010.81;;;29.97;45.82
5283;BME280;15376;48.540;9.268;2023-09-12T12:56:29;97013.38;;;29.94;46.91
5283;BME280;15376;48.540;9.268;2023-09-12T12:58:56;97013.25;;;30.07;45.75
5283;BME280;15376;48.540;9.268;2023-09-12T13:01:23;97013.09;;;30.12;45.25
5283;BME280;15376;48.540;9.268;2023-09-12T13:03:49;97007.28;;;30.05;46.05
5283;BME280;15376;48.540;9.268;2023-09-12T13:06:15;97017.78;;;30.12;46.30
5283;BME280;15376;48.540;9.268;2023-09-12T13:08:46;97012.47;;;30.15;46.49
5283;BME280;15376;48.540;9.268;2023-09-12T13:11:13;97014.06;;;30.16;46.31
5283;BME280;15376;48.540;9.268;2023-09-12T13:13:39;97006.50;;;30.22;45.71
5283;BME280;15376;48.540;9.268;2023-09-12T13:16:06;97004.09;;;30.29;45.48